Time;durP1;ratioP1;P1;durP2;ratioP2;P2;SDS_P1;SDS_P2;PMS_P1;PMS_P2;Temp;Humidity;BMP_temperature;BMP_pressure;BME280_temperature;BME280_humidity;BME280_pressure;Samples;Min_cycle;Max_cycle;Signal;HPM_P1;HPM_P2
2023/05/17 00:01:59;;;;;;;4.10;1.25;;;;;;;;;;4980463;28;20058;-78
2023/05/17 00:04:26;;;;;;;9.20;1.55;;;;;;;;;;4997628;28;20050;-78
2023/05/17 00:06:53;;;;;;;6.45;1.35;;;;;;;;;;5001319;28;20057;-78
2023/05/17 00:09:20;;;;;;;3.75;1.23;;;;;;;;;;4965720;28;20565;-78
2023/05/17 00:11:46;;;;;;;3.90;1.33;;;;;;;;;;4981728;28;20115;-78
2023/05/17 00:14:13;;;;;;;7.03;1.55;;;;;;;;;;4968946;28;20054;-77
2023/05/17 00:16:40;;;;;;;2.83;1.30;;;;;;;;;;4984418;28;20491;-78
2023/05/17 00:19:08;;;;;;;5.07;1.48;;;;;;;;;;5002210;28;20104;-78
2023/05/17 00:21:35;;;;;;;4.15;1.60;;;;;;;;;;4986690;28;20108;-77
2023/05/17 00:24:02;;;;;;;5.55;1.85;;;;;;;;;;5000305;28;20053;-78
2023/05/17 00:26:28;;;;;;;4.00;1.48;;;;;;;;;;4969427;28;20046;-78
2023/05/17 00:28:55;;;;;;;4.22;1.30;;;;;;;;;;5001631;28;20442;-79
2023/05/17 00:31:22;;;;;;;4.97;1.50;;;;;;;;;;5003352;28;20049;-79
2023/05/17 00:33:49;;;;;;;4.32;1.67;;;;;;;;;;5022465;28;20057;-79
2023/05/17 00:36:16;;;;;;;2.42;1.25;;;;;;;;;;4989831;28;20046;-78
2023/05/17 00:38:42;;;;;;;5.32;1.73;;;;;;;;;;4989495;28;20445;-78
2023/05/17 00:41:10;;;;;;;4.90;1.50;;;;;;;;;;5005037;28;20053;-78
2023/05/17 00:43:37;;;;;;;3.40;1.42;;;;;;;;;;5021810;28;20111;-78
2023/05/17 00:46:04;;;;;;;6.80;1.58;;;;;;;;;;5006773;28;20049;-78
2023/05/17 00:48:31;;;;;;;2.83;1.58;;;;;;;;;;5006769;28;20053;-78
2023/05/17 00:50:58;;;;;;;4.55;1.38;;;;;;;;;;5026479;28;20057;-78
2023/05/17 00:53:25;;;;;;;3.42;1.30;;;;;;;;;;5027723;28;20119;-78
2023/05/17 00:55:51;;;;;;;4.22;1.58;;;;;;;;;;4991309;28;20099;-78
2023/05/17 00:58:18;;;;;;;5.22;1.80;;;;;;;;;;4992342;28;20062;-78
2023/05/17 01:00:45;;;;;;;7.38;1.70;;;;;;;;;;4991653;28;20053;-78
2023/05/17 01:03:12;;;;;;;4.10;1.58;;;;;;;;;;4991212;28;20076;-78
2023/05/17 01:05:39;;;;;;;4.72;1.48;;;;;;;;;;5007741;28;20060;-78
2023/05/17 01:08:05;;;;;;;3.05;1.40;;;;;;;;;;5023252;28;20587;-78
2023/05/17 01:10:55;;;;;;;6.82;1.55;;;;;;;;;;5040157;28;20117;-78
2023/05/17 01:13:25;;;;;;;4.45;1.35;;;;;;;;;;5019648;28;20189;-79
2023/05/17 01:16:21;;;;;;;3.05;1.60;;;;;;;;;;5006791;28;20077;-78
2023/05/17 01:19:07;;;;;;;3.15;2.13;;;;;;;;;;4996849;28;20089;-77
2023/05/17 01:22:22;;;;;;;3.75;1.40;;;;;;;;;;4968809;28;20057;-77
2023/05/17 01:25:09;;;;;;;4.47;1.27;;;;;;;;;;4953200;28;20070;-78
2023/05/17 01:27:35;;;;;;;5.13;1.90;;;;;;;;;;4926687;29;20051;-78
2023/05/17 01:30:02;;;;;;;3.80;1.70;;;;;;;;;;4982734;28;20474;-78
2023/05/17 01:32:29;;;;;;;6.80;1.75;;;;;;;;;;4966681;28;20429;-79
2023/05/17 01:34:56;;;;;;;6.05;1.67;;;;;;;;;;4967529;28;20050;-78
2023/05/17 01:37:23;;;;;;;2.00;1.35;;;;;;;;;;4982564;28;20096;-78
2023/05/17 01:39:49;;;;;;;2.97;1.38;;;;;;;;;;4983807;28;20144;-78
2023/05/17 01:42:21;;;;;;;10.10;1.70;;;;;;;;;;4985486;28;20141;-79
2023/05/17 01:45:01;;;;;;;6.80;1.70;;;;;;;;;;4967902;28;20054;-78
2023/05/17 01:47:39;;;;;;;6.10;1.70;;;;;;;;;;4984140;28;20060;-79
2023/05/17 01:50:06;;;;;;;3.92;1.73;;;;;;;;;;4968374;28;20053;-79
2023/05/17 01:52:52;;;;;;;4.70;1.40;;;;;;;;;;5000031;28;20099;-76
2023/05/17 01:55:37;;;;;;;3.83;2.00;;;;;;;;;;5000326;28;20520;-77
2023/05/17 01:58:07;;;;;;;2.50;1.75;;;;;;;;;;4983147;28;20149;-77
2023/05/17 02:00:34;;;;;;;4.88;1.60;;;;;;;;;;4981660;28;20108;-77
2023/05/17 02:03:00;;;;;;;7.05;2.72;;;;;;;;;;4995404;28;20485;-76
2023/05/17 02:05:27;;;;;;;6.18;1.65;;;;;;;;;;4983588;28;20057;-77
2023/05/17 02:07:55;;;;;;;5.30;1.70;;;;;;;;;;4997204;28;20446;-78
2023/05/17 02:10:22;;;;;;;3.58;1.90;;;;;;;;;;4997196;28;20141;-78
2023/05/17 02:12:48;;;;;;;3.58;2.00;;;;;;;;;;4997663;28;20089;-79
2023/05/17 02:15:16;;;;;;;5.07;2.05;;;;;;;;;;5030136;28;20161;-79
2023/05/17 02:17:43;;;;;;;4.43;1.73;;;;;;;;;;5014329;28;20058;-79
2023/05/17 02:20:10;;;;;;;2.88;1.48;;;;;;;;;;5024268;28;20064;-78
2023/05/17 02:22:37;;;;;;;6.13;2.15;;;;;;;;;;5017300;28;20084;-78
2023/05/17 02:25:05;;;;;;;2.42;1.77;;;;;;;;;;5015452;28;20050;-78
2023/05/17 02:27:32;;;;;;;2.80;1.50;;;;;;;;;;4972710;28;20085;-78
2023/05/17 02:30:00;;;;;;;4.72;1.80;;;;;;;;;;4988586;28;20054;-78
2023/05/17 02:32:27;;;;;;;6.20;1.98;;;;;;;;;;5003429;28;20061;-78
2023/05/17 02:34:55;;;;;;;5.63;2.33;;;;;;;;;;4972957;28;20053;-79
2023/05/17 02:37:21;;;;;;;3.28;1.92;;;;;;;;;;4988648;28;20109;-78
2023/05/17 02:39:48;;;;;;;6.65;1.65;;;;;;;;;;4990677;28;20053;-78
2023/05/17 02:42:15;;;;;;;7.80;1.83;;;;;;;;;;4990289;28;20055;-79
2023/05/17 02:44:42;;;;;;;2.88;1.55;;;;;;;;;;5003733;28;20581;-78
2023/05/17 02:47:08;;;;;;;6.28;1.60;;;;;;;;;;5003278;28;20081;-78
2023/05/17 02:49:35;;;;;;;3.47;1.70;;;;;;;;;;4982193;28;20502;-78
2023/05/17 02:52:02;;;;;;;4.40;1.42;;;;;;;;;;4966656;28;20100;-78
2023/05/17 02:54:29;;;;;;;2.15;1.50;;;;;;;;;;4982469;28;20581;-78
2023/05/17 02:56:55;;;;;;;5.85;2.05;;;;;;;;;;4985833;28;20049;-77
2023/05/17 02:59:22;;;;;;;5.97;1.75;;;;;;;;;;4986551;28;20168;-77
2023/05/17 03:01:49;;;;;;;5.47;2.22;;;;;;;;;;4984866;28;20116;-78
2023/05/17 03:04:16;;;;;;;8.20;2.60;;;;;;;;;;5000143;28;20500;-78
2023/05/17 03:06:43;;;;;;;5.53;1.65;;;;;;;;;;4981682;28;20506;-78
2023/05/17 03:09:09;;;;;;;2.58;1.77;;;;;;;;;;5004555;28;20521;-78
2023/05/17 03:11:36;;;;;;;5.93;2.20;;;;;;;;;;4993638;28;20073;-78
2023/05/17 03:14:03;;;;;;;5.20;1.65;;;;;;;;;;5020164;28;20144;-78
2023/05/17 03:16:30;;;;;;;2.88;1.67;;;;;;;;;;5003358;28;20080;-78
2023/05/17 03:18:56;;;;;;;3.38;1.70;;;;;;;;;;5019354;28;20091;-78
2023/05/17 03:21:23;;;;;;;2.50;1.75;;;;;;;;;;5004475;28;20053;-78
2023/05/17 03:23:50;;;;;;;3.38;2.03;;;;;;;;;;5005912;28;20061;-78
2023/05/17 03:26:18;;;;;;;9.43;2.33;;;;;;;;;;5021364;28;20148;-79
2023/05/17 03:28:45;;;;;;;5.00;1.95;;;;;;;;;;5037973;28;20112;-79
2023/05/17 03:31:12;;;;;;;4.75;2.22;;;;;;;;;;5005630;28;20049;-78
2023/05/17 03:33:38;;;;;;;4.47;1.80;;;;;;;;;;5022289;28;20057;-78
2023/05/17 03:36:06;;;;;;;4.93;1.98;;;;;;;;;;4985910;28;20113;-78
2023/05/17 03:38:32;;;;;;;2.80;1.90;;;;;;;;;;4970121;28;20096;-78
2023/05/17 03:40:59;;;;;;;5.30;2.28;;;;;;;;;;5002717;28;20054;-78
2023/05/17 03:43:27;;;;;;;3.20;1.95;;;;;;;;;;4985691;28;20058;-78
2023/05/17 03:45:54;;;;;;;3.90;2.20;;;;;;;;;;5001219;28;20422;-78
2023/05/17 03:48:21;;;;;;;5.75;2.08;;;;;;;;;;4986030;28;20095;-78
2023/05/17 03:50:47;;;;;;;5.15;2.05;;;;;;;;;;5000926;28;20058;-78
2023/05/17 03:53:14;;;;;;;3.70;1.95;;;;;;;;;;4985556;28;20104;-78
2023/05/17 03:55:41;;;;;;;8.95;2.20;;;;;;;;;;4987427;28;20109;-78
2023/05/17 03:58:08;;;;;;;4.97;2.25;;;;;;;;;;5002401;28;20140;-78
2023/05/17 04:00:35;;;;;;;7.18;2.35;;;;;;;;;;5001817;28;20077;-78
2023/05/17 04:03:02;;;;;;;4.55;2.22;;;;;;;;;;5000903;28;20108;-78
2023/05/17 04:05:29;;;;;;;5.13;2.33;;;;;;;;;;5001571;28;20058;-78
2023/05/17 04:07:56;;;;;;;5.95;3.72;;;;;;;;;;4985366;28;20080;-79
2023/05/17 04:10:23;;;;;;;7.50;2.63;;;;;;;;;;5000285;28;20057;-78
2023/05/17 04:12:50;;;;;;;4.47;2.20;;;;;;;;;;4968927;28;20453;-78
2023/05/17 04:15:16;;;;;;;4.65;2.53;;;;;;;;;;4984840;28;20128;-80
2023/05/17 04:17:43;;;;;;;4.22;2.42;;;;;;;;;;4981405;28;20100;-79
2023/05/17 04:20:11;;;;;;;9.80;2.90;;;;;;;;;;4980959;28;20054;-78
2023/05/17 04:22:38;;;;;;;6.00;2.10;;;;;;;;;;4982308;28;20457;-78
2023/05/17 04:25:05;;;;;;;5.63;2.05;;;;;;;;;;4980868;28;20086;-78
2023/05/17 04:27:32;;;;;;;4.53;2.10;;;;;;;;;;4982182;28;20077;-78
2023/05/17 04:29:58;;;;;;;5.82;2.17;;;;;;;;;;4998445;28;20080;-78
2023/05/17 04:32:26;;;;;;;3.75;2.15;;;;;;;;;;4966336;28;20133;-80
2023/05/17 04:34:55;;;;;;;5.90;2.15;;;;;;;;;;4966538;28;20054;-79
2023/05/17 04:37:21;;;;;;;3.53;2.63;;;;;;;;;;4981084;28;20078;-78
2023/05/17 04:39:48;;;;;;;6.32;2.17;;;;;;;;;;4980696;28;20674;-78
2023/05/17 04:42:15;;;;;;;2.72;1.98;;;;;;;;;;4980956;28;20057;-78
2023/05/17 04:44:42;;;;;;;6.20;1.90;;;;;;;;;;5012423;28;20050;-77
2023/05/17 04:47:08;;;;;;;5.60;2.45;;;;;;;;;;4969876;28;20057;-78
2023/05/17 04:49:36;;;;;;;4.80;2.75;;;;;;;;;;4988710;28;20050;-77
2023/05/17 04:52:03;;;;;;;6.90;1.90;;;;;;;;;;5032937;28;20058;-77
2023/05/17 04:54:31;;;;;;;5.07;2.08;;;;;;;;;;4985944;28;20088;-77
2023/05/17 04:56:58;;;;;;;4.57;1.80;;;;;;;;;;5019644;28;20100;-77
2023/05/17 04:59:25;;;;;;;4.53;2.03;;;;;;;;;;5010861;28;20513;-77
2023/05/17 05:01:52;;;;;;;3.05;1.67;;;;;;;;;;5017715;28;20245;-79
2023/05/17 05:04:18;;;;;;;4.90;2.10;;;;;;;;;;5007934;28;20057;-78
2023/05/17 05:06:46;;;;;;;3.03;1.58;;;;;;;;;;5009388;28;20057;-78
2023/05/17 05:09:12;;;;;;;2.97;1.75;;;;;;;;;;4990444;28;20049;-78
2023/05/17 05:11:39;;;;;;;5.78;2.03;;;;;;;;;;4997491;28;20058;-77
2023/05/17 05:14:06;;;;;;;4.88;2.10;;;;;;;;;;4996885;28;20089;-78
2023/05/17 05:16:33;;;;;;;6.65;1.90;;;;;;;;;;4997515;28;20108;-77
2023/05/17 05:18:59;;;;;;;4.43;1.67;;;;;;;;;;4996844;28;20136;-78
2023/05/17 05:21:26;;;;;;;7.60;1.95;;;;;;;;;;4997258;28;20058;-78
2023/05/17 05:23:53;;;;;;;13.60;2.63;;;;;;;;;;4982301;28;20136;-78
2023/05/17 05:26:20;;;;;;;6.60;2.63;;;;;;;;;;4981883;28;20089;-78
2023/05/17 05:28:47;;;;;;;3.88;1.40;;;;;;;;;;4981722;28;20080;-78
2023/05/17 05:31:13;;;;;;;10.20;2.58;;;;;;;;;;4980965;28;20081;-78
2023/05/17 05:33:41;;;;;;;6.40;2.15;;;;;;;;;;5014061;28;20129;-80
2023/05/17 05:36:08;;;;;;;4.78;1.70;;;;;;;;;;5001804;28;20084;-77
2023/05/17 05:38:36;;;;;;;5.05;2.00;;;;;;;;;;5000478;28;20161;-77
2023/05/17 05:41:02;;;;;;;8.05;2.10;;;;;;;;;;5002101;28;20072;-77
2023/05/17 05:43:29;;;;;;;7.30;2.05;;;;;;;;;;5006780;28;20089;-79
2023/05/17 05:45:56;;;;;;;2.60;1.80;;;;;;;;;;4984842;28;20115;-75
2023/05/17 05:48:22;;;;;;;3.50;1.85;;;;;;;;;;5016754;28;20081;-75
2023/05/17 05:50:49;;;;;;;6.47;1.75;;;;;;;;;;5014935;28;20580;-77
2023/05/17 05:53:16;;;;;;;8.32;2.22;;;;;;;;;;5014414;28;20053;-77
2023/05/17 05:55:45;;;;;;;5.05;1.85;;;;;;;;;;5018558;28;20057;-76
2023/05/17 05:58:12;;;;;;;5.55;2.65;;;;;;;;;;4998846;28;20053;-76
2023/05/17 06:00:39;;;;;;;4.32;1.92;;;;;;;;;;5013576;28;20049;-76
2023/05/17 06:03:05;;;;;;;3.70;1.65;;;;;;;;;;5016975;28;20493;-78
2023/05/17 06:05:32;;;;;;;4.50;2.10;;;;;;;;;;5032090;28;20088;-77
2023/05/17 06:07:59;;;;;;;3.55;2.00;;;;;;;;;;5024119;28;20088;-79
2023/05/17 06:10:26;;;;;;;5.43;1.80;;;;;;;;;;5015868;28;20050;-75
2023/05/17 06:12:53;;;;;;;5.07;1.75;;;;;;;;;;5014902;28;20065;-76
2023/05/17 06:15:20;;;;;;;4.72;1.92;;;;;;;;;;5023104;28;20044;-76
2023/05/17 06:17:47;;;;;;;5.18;1.85;;;;;;;;;;5059750;28;20034;-76
2023/05/17 06:20:15;;;;;;;5.60;2.08;;;;;;;;;;5042512;28;20029;-75
2023/05/17 06:22:42;;;;;;;5.22;2.13;;;;;;;;;;5037329;28;20053;-80
2023/05/17 06:25:12;;;;;;;4.22;1.83;;;;;;;;;;4999072;28;20060;-76
2023/05/17 06:27:38;;;;;;;7.55;2.50;;;;;;;;;;4999168;28;20072;-76
2023/05/17 06:30:06;;;;;;;4.78;1.80;;;;;;;;;;5000920;28;20160;-79
2023/05/17 06:32:33;;;;;;;7.28;2.00;;;;;;;;;;5003008;28;20068;-78
2023/05/17 06:35:00;;;;;;;4.22;1.73;;;;;;;;;;4972810;28;20061;-80
2023/05/17 06:37:27;;;;;;;5.85;1.75;;;;;;;;;;4987335;28;20070;-78
2023/05/17 06:40:03;;;;;;;6.95;1.92;;;;;;;;;;4997936;28;20049;-76
2023/05/17 06:42:35;;;;;;;4.45;1.58;;;;;;;;;;4966503;28;20054;-75
2023/05/17 06:45:02;;;;;;;4.65;1.83;;;;;;;;;;4994904;28;20148;-75
2023/05/17 06:47:29;;;;;;;7.07;2.13;;;;;;;;;;4994587;28;20506;-75
2023/05/17 06:49:55;;;;;;;3.33;1.30;;;;;;;;;;5005222;28;20052;-75
2023/05/17 06:52:22;;;;;;;8.82;2.03;;;;;;;;;;5014035;28;20049;-75
2023/05/17 06:54:49;;;;;;;10.15;2.08;;;;;;;;;;5016310;28;20084;-75
2023/05/17 06:57:16;;;;;;;4.93;1.75;;;;;;;;;;5033770;28;20139;-75
2023/05/17 06:59:43;;;;;;;3.42;1.48;;;;;;;;;;5016038;28;20068;-76
2023/05/17 07:02:09;;;;;;;6.00;1.73;;;;;;;;;;5013686;28;20080;-76
2023/05/17 07:04:36;;;;;;;6.00;2.10;;;;;;;;;;5029019;28;20136;-77
2023/05/17 07:07:03;;;;;;;5.80;2.17;;;;;;;;;;4999618;28;20089;-79
2023/05/17 07:09:30;;;;;;;6.80;1.98;;;;;;;;;;5014686;28;20053;-79
2023/05/17 07:11:57;;;;;;;7.72;2.45;;;;;;;;;;5030146;28;20092;-76
2023/05/17 07:14:24;;;;;;;4.68;2.15;;;;;;;;;;5016091;28;20092;-78
2023/05/17 07:16:51;;;;;;;5.93;2.10;;;;;;;;;;5016401;28;20045;-76
2023/05/17 07:19:18;;;;;;;7.20;2.70;;;;;;;;;;4998648;28;20081;-76
2023/05/17 07:21:45;;;;;;;8.50;2.40;;;;;;;;;;4981942;28;20425;-77
2023/05/17 07:24:12;;;;;;;6.60;2.03;;;;;;;;;;4977572;28;20073;-77
2023/05/17 07:26:39;;;;;;;5.32;1.75;;;;;;;;;;4978089;28;20149;-77
2023/05/17 07:29:05;;;;;;;6.40;1.90;;;;;;;;;;4978558;28;20050;-78
2023/05/17 07:31:32;;;;;;;7.35;2.60;;;;;;;;;;4994063;28;20586;-75
2023/05/17 07:33:59;;;;;;;3.70;2.15;;;;;;;;;;5000780;28;20060;-75
2023/05/17 07:36:29;;;;;;;10.57;1.92;;;;;;;;;;5033886;28;20067;-75
2023/05/17 07:38:56;;;;;;;5.75;2.65;;;;;;;;;;5023953;28;20136;-75
2023/05/17 07:41:23;;;;;;;6.28;2.20;;;;;;;;;;5013488;28;20057;-75
2023/05/17 07:43:50;;;;;;;8.63;2.70;;;;;;;;;;5029473;28;20148;-75
2023/05/17 07:46:18;;;;;;;5.05;2.40;;;;;;;;;;5029222;28;20533;-75
2023/05/17 07:48:45;;;;;;;3.50;1.73;;;;;;;;;;5029448;28;20418;-75
2023/05/17 07:51:12;;;;;;;8.25;2.88;;;;;;;;;;5028964;28;20057;-75
2023/05/17 07:53:38;;;;;;;9.82;2.38;;;;;;;;;;5013555;28;20053;-75
2023/05/17 07:56:05;;;;;;;7.10;2.90;;;;;;;;;;5013453;28;20057;-75
2023/05/17 07:58:32;;;;;;;10.80;2.70;;;;;;;;;;5029508;28;20141;-75
2023/05/17 08:00:59;;;;;;;6.35;2.90;;;;;;;;;;5007896;28;20748;-75
2023/05/17 08:03:27;;;;;;;8.27;2.60;;;;;;;;;;4994160;28;20092;-75
2023/05/17 08:05:53;;;;;;;6.38;3.05;;;;;;;;;;4994561;28;20053;-75
2023/05/17 08:08:21;;;;;;;5.05;2.50;;;;;;;;;;4994527;28;20075;-75
2023/05/17 08:10:48;;;;;;;8.70;2.92;;;;;;;;;;4977903;28;20088;-75
2023/05/17 08:13:15;;;;;;;3.60;2.65;;;;;;;;;;4993697;28;20054;-75
2023/05/17 08:15:42;;;;;;;6.70;2.80;;;;;;;;;;4993891;28;20156;-75
2023/05/17 08:18:08;;;;;;;6.93;3.15;;;;;;;;;;4993755;28;20054;-75
2023/05/17 08:20:36;;;;;;;7.13;2.45;;;;;;;;;;4993646;28;20140;-75
2023/05/17 08:23:03;;;;;;;6.55;2.47;;;;;;;;;;4993645;28;20097;-75
2023/05/17 08:25:30;;;;;;;6.82;3.05;;;;;;;;;;4993695;28;20066;-75
2023/05/17 08:27:57;;;;;;;6.88;2.60;;;;;;;;;;4994357;28;20457;-75
2023/05/17 08:30:23;;;;;;;4.72;2.28;;;;;;;;;;4977550;28;20065;-75
2023/05/17 08:32:55;;;;;;;6.78;3.03;;;;;;;;;;5015172;28;20582;-75
2023/05/17 08:35:22;;;;;;;8.00;4.07;;;;;;;;;;5016917;28;20054;-75
2023/05/17 08:37:53;;;;;;;7.55;2.90;;;;;;;;;;4983457;28;20073;-75
2023/05/17 08:40:20;;;;;;;6.10;2.95;;;;;;;;;;5033480;28;20481;-75
2023/05/17 08:42:51;;;;;;;4.32;2.65;;;;;;;;;;5001502;28;20064;-75
2023/05/17 08:45:17;;;;;;;6.82;2.78;;;;;;;;;;5001316;28;20183;-75
2023/05/17 08:47:45;;;;;;;5.72;2.47;;;;;;;;;;5000875;28;20061;-74
2023/05/17 08:50:13;;;;;;;5.13;2.35;;;;;;;;;;4982807;28;20053;-75
2023/05/17 08:52:40;;;;;;;5.00;2.47;;;;;;;;;;4998385;28;20136;-75
2023/05/17 08:55:07;;;;;;;6.63;2.33;;;;;;;;;;5014601;28;20520;-75
2023/05/17 08:57:38;;;;;;;4.60;2.40;;;;;;;;;;5020472;28;20090;-75
2023/05/17 09:00:11;;;;;;;6.53;2.42;;;;;;;;;;4987565;28;20050;-75
2023/05/17 09:02:39;;;;;;;7.50;2.45;;;;;;;;;;4981557;28;20077;-75
2023/05/17 09:05:07;;;;;;;3.58;2.38;;;;;;;;;;4996186;28;20053;-75
2023/05/17 09:07:35;;;;;;;6.53;2.85;;;;;;;;;;4981156;28;20062;-75
2023/05/17 09:10:05;;;;;;;3.83;2.47;;;;;;;;;;4981233;28;20085;-76
2023/05/17 09:12:35;;;;;;;5.95;2.30;;;;;;;;;;4997231;28;20136;-77
2023/05/17 09:15:16;;;;;;;4.45;2.28;;;;;;;;;;4982708;28;20064;-76
2023/05/17 09:17:50;;;;;;;7.38;2.80;;;;;;;;;;4985629;28;20076;-76
2023/05/17 09:20:27;;;;;;;6.07;2.60;;;;;;;;;;4998971;28;20605;-76
2023/05/17 09:22:55;;;;;;;3.65;2.25;;;;;;;;;;4985011;28;20053;-76
2023/05/17 09:25:23;;;;;;;7.25;2.50;;;;;;;;;;5000061;28;20057;-76
2023/05/17 09:27:53;;;;;;;5.30;2.30;;;;;;;;;;4997865;28;20103;-76
2023/05/17 09:30:29;;;;;;;6.75;2.67;;;;;;;;;;4996271;28;20054;-76
2023/05/17 09:32:56;;;;;;;7.07;2.28;;;;;;;;;;4981481;28;20049;-75
2023/05/17 09:35:30;;;;;;;4.18;1.83;;;;;;;;;;4980402;28;20089;-75
2023/05/17 09:38:03;;;;;;;5.45;2.55;;;;;;;;;;4983449;28;20049;-76
2023/05/17 09:40:30;;;;;;;6.20;2.03;;;;;;;;;;5016094;28;20057;-77
2023/05/17 09:42:58;;;;;;;4.93;2.20;;;;;;;;;;5032098;28;20417;-75
2023/05/17 09:45:25;;;;;;;6.07;2.65;;;;;;;;;;4998730;28;20391;-75
2023/05/17 09:47:52;;;;;;;5.63;2.42;;;;;;;;;;4998043;28;20136;-75
2023/05/17 09:50:20;;;;;;;6.20;2.65;;;;;;;;;;5000514;28;20049;-75
2023/05/17 09:52:51;;;;;;;9.07;2.47;;;;;;;;;;5013579;28;20057;-75
2023/05/17 09:55:18;;;;;;;8.00;2.60;;;;;;;;;;4999421;28;20089;-75
2023/05/17 09:57:47;;;;;;;4.88;2.55;;;;;;;;;;4983018;28;20140;-75
2023/05/17 10:00:16;;;;;;;9.15;2.55;;;;;;;;;;4964232;28;20420;-75
2023/05/17 10:02:42;;;;;;;5.00;2.65;;;;;;;;;;4980212;28;20058;-77
2023/05/17 10:05:11;;;;;;;4.15;2.22;;;;;;;;;;4979888;28;20050;-77
2023/05/17 10:07:39;;;;;;;4.05;2.58;;;;;;;;;;4980098;28;20483;-76
2023/05/17 10:10:07;;;;;;;5.10;2.30;;;;;;;;;;4995670;28;20145;-76
2023/05/17 10:12:34;;;;;;;6.18;2.28;;;;;;;;;;5011650;28;20144;-76
2023/05/17 10:15:01;;;;;;;6.35;2.63;;;;;;;;;;5011804;28;20089;-76
2023/05/17 10:17:31;;;;;;;4.50;2.00;;;;;;;;;;5011839;28;20124;-77
2023/05/17 10:19:58;;;;;;;4.45;2.35;;;;;;;;;;4995204;28;20064;-76
2023/05/17 10:22:25;;;;;;;3.42;1.75;;;;;;;;;;4979446;28;20128;-75
2023/05/17 10:24:52;;;;;;;4.13;2.13;;;;;;;;;;4979641;28;20086;-75
2023/05/17 10:27:20;;;;;;;4.53;2.47;;;;;;;;;;4979627;28;20057;-76
2023/05/17 10:29:47;;;;;;;5.53;2.50;;;;;;;;;;4995016;28;20107;-76
2023/05/17 10:32:16;;;;;;;5.40;2.17;;;;;;;;;;5031370;28;20059;-76
2023/05/17 10:34:43;;;;;;;6.30;2.78;;;;;;;;;;4999081;28;20153;-76
2023/05/17 10:37:17;;;;;;;6.20;2.83;;;;;;;;;;5000567;28;20517;-76
2023/05/17 10:39:45;;;;;;;4.35;2.50;;;;;;;;;;4999417;28;20096;-76
2023/05/17 10:42:12;;;;;;;7.05;2.80;;;;;;;;;;4979420;28;20578;-76
2023/05/17 10:44:41;;;;;;;5.80;2.42;;;;;;;;;;4979643;28;20425;-76
2023/05/17 10:47:08;;;;;;;5.13;2.58;;;;;;;;;;4981160;28;20096;-76
2023/05/17 10:49:37;;;;;;;4.88;2.72;;;;;;;;;;4992044;28;20052;-76
2023/05/17 10:52:16;;;;;;;5.05;2.75;;;;;;;;;;5014743;28;20088;-76
2023/05/17 10:54:44;;;;;;;7.75;2.70;;;;;;;;;;4998705;28;20108;-76
2023/05/17 10:57:31;;;;;;;4.47;2.70;;;;;;;;;;4982027;28;20604;-76
2023/05/17 11:00:11;;;;;;;5.72;2.60;;;;;;;;;;4983808;28;20112;-75
2023/05/17 11:02:43;;;;;;;5.95;2.65;;;;;;;;;;4979113;28;20058;-76
2023/05/17 11:05:24;;;;;;;3.47;2.15;;;;;;;;;;4996457;28;20451;-76
2023/05/17 11:07:51;;;;;;;5.75;2.60;;;;;;;;;;4979213;28;20053;-76
2023/05/17 11:10:18;;;;;;;4.18;2.25;;;;;;;;;;5014078;28;20068;-76
2023/05/17 11:12:54;;;;;;;6.53;2.38;;;;;;;;;;5030948;28;20096;-75
2023/05/17 11:15:25;;;;;;;5.25;2.88;;;;;;;;;;5014517;28;20060;-76
2023/05/17 11:17:55;;;;;;;4.40;2.30;;;;;;;;;;5015987;28;20140;-79
2023/05/17 11:20:25;;;;;;;8.70;2.83;;;;;;;;;;5014754;28;20464;-76
2023/05/17 11:23:06;;;;;;;5.03;2.33;;;;;;;;;;5014244;28;20072;-75
2023/05/17 11:25:35;;;;;;;5.43;3.15;;;;;;;;;;4997590;28;20057;-76
2023/05/17 11:28:18;;;;;;;8.63;2.40;;;;;;;;;;5013531;28;20053;-75
2023/05/17 11:30:52;;;;;;;5.25;2.88;;;;;;;;;;4982975;28;20088;-75
2023/05/17 11:33:20;;;;;;;6.60;2.13;;;;;;;;;;4998585;28;20055;-75
2023/05/17 11:36:10;;;;;;;4.22;2.75;;;;;;;;;;5001070;28;20064;-75
2023/05/17 11:38:37;;;;;;;3.78;2.05;;;;;;;;;;4992201;28;20133;-75
2023/05/17 11:41:18;;;;;;;3.33;2.10;;;;;;;;;;4978914;28;20532;-75
2023/05/17 11:43:48;;;;;;;6.38;2.45;;;;;;;;;;4978850;28;20045;-76
2023/05/17 11:46:19;;;;;;;5.30;2.25;;;;;;;;;;4978890;28;20142;-75
2023/05/17 11:48:47;;;;;;;7.00;2.83;;;;;;;;;;4999968;28;20049;-75
2023/05/17 11:51:15;;;;;;;5.65;2.63;;;;;;;;;;5013500;28;20480;-75
2023/05/17 11:53:43;;;;;;;4.95;2.15;;;;;;;;;;5030145;28;20053;-75
2023/05/17 11:56:10;;;;;;;5.78;2.15;;;;;;;;;;5013603;28;20096;-75
2023/05/17 11:58:37;;;;;;;6.20;2.33;;;;;;;;;;5029249;28;20132;-75
2023/05/17 12:01:04;;;;;;;5.00;2.05;;;;;;;;;;5013089;28;20053;-75
2023/05/17 12:03:32;;;;;;;4.47;2.45;;;;;;;;;;5013616;28;20068;-75
2023/05/17 12:06:12;;;;;;;5.03;2.25;;;;;;;;;;4997293;28;20131;-75
2023/05/17 12:08:42;;;;;;;5.13;2.15;;;;;;;;;;4995958;28;20089;-76
2023/05/17 12:11:16;;;;;;;4.78;1.98;;;;;;;;;;4997313;28;20136;-76
2023/05/17 12:13:45;;;;;;;6.75;2.15;;;;;;;;;;5030946;28;20053;-76
2023/05/17 12:16:13;;;;;;;4.28;2.15;;;;;;;;;;5013211;28;20064;-76
2023/05/17 12:18:48;;;;;;;4.60;2.08;;;;;;;;;;4977578;28;20072;-75
2023/05/17 12:21:16;;;;;;;4.45;2.13;;;;;;;;;;4993401;28;20133;-75
2023/05/17 12:23:45;;;;;;;5.88;2.80;;;;;;;;;;4993809;28;20069;-75
2023/05/17 12:26:18;;;;;;;3.95;2.25;;;;;;;;;;4994376;28;20054;-75
2023/05/17 12:28:52;;;;;;;5.80;2.50;;;;;;;;;;4981942;28;20129;-75
2023/05/17 12:31:21;;;;;;;4.10;2.65;;;;;;;;;;4997059;28;20496;-75
2023/05/17 12:33:49;;;;;;;5.60;2.30;;;;;;;;;;5013118;28;20145;-75
2023/05/17 12:36:16;;;;;;;5.07;2.95;;;;;;;;;;4997649;28;20057;-75
2023/05/17 12:38:44;;;;;;;5.88;2.40;;;;;;;;;;5008400;28;20069;-75
2023/05/17 12:41:11;;;;;;;5.80;2.35;;;;;;;;;;4993174;28;20068;-75
2023/05/17 12:43:39;;;;;;;5.43;2.55;;;;;;;;;;4977468;28;20403;-75
2023/05/17 12:46:07;;;;;;;3.28;2.03;;;;;;;;;;4961529;28;20145;-74
2023/05/17 12:48:35;;;;;;;5.38;2.03;;;;;;;;;;4996253;28;20045;-74
2023/05/17 12:51:16;;;;;;;5.78;2.05;;;;;;;;;;5012916;28;20125;-75
2023/05/17 12:53:54;;;;;;;6.93;3.13;;;;;;;;;;4996845;28;20065;-75
2023/05/17 12:56:27;;;;;;;6.95;2.97;;;;;;;;;;5014238;28;20060;-75
2023/05/17 12:59:12;;;;;;;8.15;3.00;;;;;;;;;;5007189;28;20054;-75
2023/05/17 13:01:50;;;;;;;3.92;2.38;;;;;;;;;;4993050;28;20060;-75
2023/05/17 13:04:19;;;;;;;5.07;2.78;;;;;;;;;;4977574;28;20132;-75
2023/05/17 13:07:00;;;;;;;7.57;3.60;;;;;;;;;;4978275;28;20103;-75
2023/05/17 13:09:29;;;;;;;6.03;2.63;;;;;;;;;;5002493;28;20476;-75
2023/05/17 13:11:59;;;;;;;3.45;2.20;;;;;;;;;;5012568;28;20137;-75
2023/05/17 13:14:40;;;;;;;6.85;2.72;;;;;;;;;;4996813;28;20053;-75
2023/05/17 13:17:35;;;;;;;7.50;2.38;;;;;;;;;;4998439;28;20517;-75
2023/05/17 13:20:03;;;;;;;5.03;2.63;;;;;;;;;;4995536;28;20058;-75
2023/05/17 13:22:32;;;;;;;5.00;2.20;;;;;;;;;;4981649;28;20062;-76
2023/05/17 13:24:59;;;;;;;5.20;2.47;;;;;;;;;;4963029;28;20145;-74
2023/05/17 13:27:26;;;;;;;3.97;2.50;;;;;;;;;;5029923;28;20171;-75
2023/05/17 13:29:53;;;;;;;5.28;2.42;;;;;;;;;;4990225;28;20128;-75
2023/05/17 13:32:20;;;;;;;4.43;2.92;;;;;;;;;;5016626;28;20057;-75
2023/05/17 13:34:47;;;;;;;5.35;2.55;;;;;;;;;;5017798;28;20100;-74
2023/05/17 13:37:14;;;;;;;4.15;2.38;;;;;;;;;;5015241;28;20144;-75
2023/05/17 13:39:40;;;;;;;7.88;2.28;;;;;;;;;;5015493;28;20128;-74
2023/05/17 13:42:08;;;;;;;8.20;3.03;;;;;;;;;;5015831;28;20084;-74
2023/05/17 13:44:37;;;;;;;3.78;2.47;;;;;;;;;;4999559;28;20049;-74
2023/05/17 13:47:04;;;;;;;5.53;2.70;;;;;;;;;;5032513;28;20068;-74
2023/05/17 13:49:31;;;;;;;5.35;2.00;;;;;;;;;;5006488;28;20119;-74
2023/05/17 13:51:59;;;;;;;4.20;2.22;;;;;;;;;;4995801;28;20526;-75
2023/05/17 13:54:26;;;;;;;4.05;2.10;;;;;;;;;;4980126;28;20064;-74
2023/05/17 13:56:54;;;;;;;2.83;1.90;;;;;;;;;;4996023;28;20540;-74
2023/05/17 13:59:21;;;;;;;5.38;2.30;;;;;;;;;;5002970;28;20058;-74
2023/05/17 14:01:48;;;;;;;6.40;2.83;;;;;;;;;;5031893;28;20136;-73
2023/05/17 14:04:15;;;;;;;4.32;2.53;;;;;;;;;;5015809;28;20124;-74
2023/05/17 14:06:41;;;;;;;3.75;2.42;;;;;;;;;;5031608;28;20140;-74
2023/05/17 14:09:09;;;;;;;4.75;2.65;;;;;;;;;;5012215;28;20145;-75
2023/05/17 14:11:36;;;;;;;5.80;2.17;;;;;;;;;;4994848;28;20050;-75
2023/05/17 14:14:03;;;;;;;3.95;2.33;;;;;;;;;;4995114;28;20650;-75
2023/05/17 14:16:30;;;;;;;6.20;2.40;;;;;;;;;;4978961;28;20406;-73
2023/05/17 14:18:57;;;;;;;5.03;2.58;;;;;;;;;;4997876;28;20080;-74
2023/05/17 14:21:26;;;;;;;5.10;3.20;;;;;;;;;;4998429;28;20464;-74
2023/05/17 14:23:53;;;;;;;5.22;2.40;;;;;;;;;;5030429;28;20148;-74
2023/05/17 14:26:21;;;;;;;5.85;2.58;;;;;;;;;;5030250;28;20055;-74
2023/05/17 14:28:47;;;;;;;4.45;2.50;;;;;;;;;;5011498;28;20148;-74
2023/05/17 14:31:14;;;;;;;4.90;2.58;;;;;;;;;;4993276;28;20103;-73
2023/05/17 14:33:41;;;;;;;6.28;2.40;;;;;;;;;;4994423;28;20092;-73
2023/05/17 14:36:08;;;;;;;4.47;2.55;;;;;;;;;;4993918;28;20058;-74
2023/05/17 14:38:37;;;;;;;6.28;2.45;;;;;;;;;;4994882;28;20057;-73
2023/05/17 14:41:05;;;;;;;6.50;3.05;;;;;;;;;;4981558;28;20111;-74
2023/05/17 14:43:32;;;;;;;4.75;2.78;;;;;;;;;;5030067;28;20144;-73
2023/05/17 14:45:58;;;;;;;4.68;2.38;;;;;;;;;;5029804;28;20527;-73
2023/05/17 14:48:25;;;;;;;5.38;2.45;;;;;;;;;;5029598;28;20088;-72
2023/05/17 14:50:52;;;;;;;5.13;2.65;;;;;;;;;;5013938;28;20053;-72
2023/05/17 14:53:19;;;;;;;6.88;2.33;;;;;;;;;;5013516;28;20080;-72